sensor_id;sensor_type;location;lat;lon;timestamp;P1;durP1;ratioP1;P2;durP2;ratioP2
6850;SDS011;3464;42.728;23.296;2023-04-06T00:01:48;23.80;;;13.80;;
6850;SDS011;3464;42.728;23.296;2023-04-06T00:04:15;23.17;;;14.57;;
6850;SDS011;3464;42.728;23.296;2023-04-06T00:06:42;22.90;;;14.03;;
6850;SDS011;3464;42.728;23.296;2023-04-06T00:09:11;24.07;;;13.13;;
6850;SDS011;3464;42.728;23.296;2023-04-06T00:11:38;25.27;;;13.80;;
6850;SDS011;3464;42.728;23.296;2023-04-06T00:14:05;22.70;;;13.83;;
6850;SDS011;3464;42.728;23.296;2023-04-06T00:16:32;23.23;;;14.30;;
6850;SDS011;3464;42.728;23.296;2023-04-06T00:18:59;20.83;;;14.13;;
6850;SDS011;3464;42.728;23.296;2023-04-06T00:21:26;21.83;;;14.10;;
6850;SDS011;3464;42.728;23.296;2023-04-06T00:23:52;21.67;;;13.90;;
6850;SDS011;3464;42.728;23.296;2023-04-06T00:26:19;20.80;;;13.43;;
6850;SDS011;3464;42.728;23.296;2023-04-06T00:28:46;19.70;;;12.57;;
6850;SDS011;3464;42.728;23.296;2023-04-06T00:31:14;19.27;;;12.70;;
6850;SDS011;3464;42.728;23.296;2023-04-06T00:33:41;20.57;;;12.77;;
6850;SDS011;3464;42.728;23.296;2023-04-06T00:36:08;21.13;;;12.90;;
6850;SDS011;3464;42.728;23.296;2023-04-06T00:38:35;21.13;;;13.77;;
6850;SDS011;3464;42.728;23.296;2023-04-06T00:41:03;19.90;;;12.93;;
6850;SDS011;3464;42.728;23.296;2023-04-06T00:43:30;21.67;;;13.63;;
6850;SDS011;3464;42.728;23.296;2023-04-06T00:45:56;22.23;;;13.93;;
6850;SDS011;3464;42.728;23.296;2023-04-06T00:48:23;21.03;;;13.20;;
6850;SDS011;3464;42.728;23.296;2023-04-06T00:50:49;21.47;;;13.37;;
6850;SDS011;3464;42.728;23.296;2023-04-06T00:53:16;19.93;;;12.47;;
6850;SDS011;3464;42.728;23.296;2023-04-06T00:55:43;22.33;;;13.43;;
6850;SDS011;3464;42.728;23.296;2023-04-06T00:58:09;19.00;;;12.40;;
6850;SDS011;3464;42.728;23.296;2023-04-06T01:00:36;21.37;;;12.50;;
6850;SDS011;3464;42.728;23.296;2023-04-06T01:03:03;19.47;;;11.83;;
6850;SDS011;3464;42.728;23.296;2023-04-06T01:05:30;18.60;;;11.20;;
6850;SDS011;3464;42.728;23.296;2023-04-06T01:07:56;24.50;;;12.27;;
6850;SDS011;3464;42.728;23.296;2023-04-06T01:10:23;20.33;;;12.30;;
6850;SDS011;3464;42.728;23.296;2023-04-06T01:12:50;22.97;;;12.97;;
6850;SDS011;3464;42.728;23.296;2023-04-06T01:15:17;19.53;;;12.07;;
6850;SDS011;3464;42.728;23.296;2023-04-06T01:17:44;20.83;;;12.50;;
6850;SDS011;3464;42.728;23.296;2023-04-06T01:20:12;21.73;;;12.53;;
6850;SDS011;3464;42.728;23.296;2023-04-06T01:22:38;21.03;;;12.83;;
6850;SDS011;3464;42.728;23.296;2023-04-06T01:25:05;22.13;;;13.27;;
6850;SDS011;3464;42.728;23.296;2023-04-06T01:27:33;22.70;;;13.60;;
6850;SDS011;3464;42.728;23.296;2023-04-06T01:29:59;22.67;;;13.43;;
6850;SDS011;3464;42.728;23.296;2023-04-06T01:32:26;21.97;;;13.80;;
6850;SDS011;3464;42.728;23.296;2023-04-06T01:34:53;24.60;;;14.57;;
6850;SDS011;3464;42.728;23.296;2023-04-06T01:37:19;19.77;;;12.80;;
6850;SDS011;3464;42.728;23.296;2023-04-06T01:39:46;21.67;;;13.50;;
6850;SDS011;3464;42.728;23.296;2023-04-06T01:42:13;20.73;;;12.63;;
6850;SDS011;3464;42.728;23.296;2023-04-06T01:44:40;21.53;;;12.97;;
6850;SDS011;3464;42.728;23.296;2023-04-06T01:47:07;20.60;;;13.00;;
6850;SDS011;3464;42.728;23.296;2023-04-06T01:49:33;22.13;;;12.97;;
6850;SDS011;3464;42.728;23.296;2023-04-06T01:52:00;22.30;;;13.70;;
6850;SDS011;3464;42.728;23.296;2023-04-06T01:54:27;22.10;;;14.27;;
6850;SDS011;3464;42.728;23.296;2023-04-06T01:56:53;24.13;;;14.77;;
6850;SDS011;3464;42.728;23.296;2023-04-06T01:59:20;20.93;;;13.70;;
6850;SDS011;3464;42.728;23.296;2023-04-06T02:01:48;23.40;;;14.20;;
6850;SDS011;3464;42.728;23.296;2023-04-06T02:04:15;21.23;;;13.93;;
6850;SDS011;3464;42.728;23.296;2023-04-06T02:06:41;24.10;;;15.10;;
6850;SDS011;3464;42.728;23.296;2023-04-06T02:09:08;22.97;;;14.07;;
6850;SDS011;3464;42.728;23.296;2023-04-06T02:11:35;21.93;;;13.23;;
6850;SDS011;3464;42.728;23.296;2023-04-06T02:14:02;22.80;;;14.00;;
6850;SDS011;3464;42.728;23.296;2023-04-06T02:16:28;21.30;;;13.40;;
6850;SDS011;3464;42.728;23.296;2023-04-06T02:18:56;21.87;;;13.50;;
6850;SDS011;3464;42.728;23.296;2023-04-06T02:21:23;22.87;;;14.10;;
6850;SDS011;3464;42.728;23.296;2023-04-06T02:23:49;22.80;;;14.83;;
6850;SDS011;3464;42.728;23.296;2023-04-06T02:26:16;23.40;;;15.03;;
6850;SDS011;3464;42.728;23.296;2023-04-06T02:28:43;25.53;;;15.97;;
6850;SDS011;3464;42.728;23.296;2023-04-06T02:31:19;22.93;;;14.90;;
6850;SDS011;3464;42.728;23.296;2023-04-06T02:33:47;25.27;;;16.03;;
6850;SDS011;3464;42.728;23.296;2023-04-06T02:36:13;25.67;;;15.47;;
6850;SDS011;3464;42.728;23.296;2023-04-06T02:38:40;24.20;;;15.03;;
6850;SDS011;3464;42.728;23.296;2023-04-06T02:41:07;23.00;;;15.27;;
6850;SDS011;3464;42.728;23.296;2023-04-06T02:43:34;23.43;;;14.67;;
6850;SDS011;3464;42.728;23.296;2023-04-06T02:46:00;22.83;;;14.93;;
6850;SDS011;3464;42.728;23.296;2023-04-06T02:48:27;23.30;;;14.93;;
6850;SDS011;3464;42.728;23.296;2023-04-06T02:50:54;25.00;;;16.30;;
6850;SDS011;3464;42.728;23.296;2023-04-06T02:53:20;25.33;;;15.93;;
6850;SDS011;3464;42.728;23.296;2023-04-06T02:55:47;23.30;;;15.57;;
6850;SDS011;3464;42.728;23.296;2023-04-06T02:58:14;25.07;;;16.80;;
6850;SDS011;3464;42.728;23.296;2023-04-06T03:00:41;24.87;;;15.93;;
6850;SDS011;3464;42.728;23.296;2023-04-06T03:03:08;23.37;;;15.53;;
6850;SDS011;3464;42.728;23.296;2023-04-06T03:05:35;25.70;;;15.93;;
6850;SDS011;3464;42.728;23.296;2023-04-06T03:08:02;29.53;;;16.57;;
6850;SDS011;3464;42.728;23.296;2023-04-06T03:10:29;27.23;;;16.40;;
6850;SDS011;3464;42.728;23.296;2023-04-06T03:12:56;25.47;;;16.30;;
6850;SDS011;3464;42.728;23.296;2023-04-06T03:15:23;27.60;;;17.93;;
6850;SDS011;3464;42.728;23.296;2023-04-06T03:17:51;26.77;;;16.57;;
6850;SDS011;3464;42.728;23.296;2023-04-06T03:20:18;26.50;;;17.17;;
6850;SDS011;3464;42.728;23.296;2023-04-06T03:22:45;26.63;;;16.40;;
6850;SDS011;3464;42.728;23.296;2023-04-06T03:25:12;25.93;;;17.53;;
6850;SDS011;3464;42.728;23.296;2023-04-06T03:27:39;26.97;;;17.23;;
6850;SDS011;3464;42.728;23.296;2023-04-06T03:30:07;26.80;;;16.77;;
6850;SDS011;3464;42.728;23.296;2023-04-06T03:32:34;23.50;;;15.17;;
6850;SDS011;3464;42.728;23.296;2023-04-06T03:35:00;26.53;;;16.20;;
6850;SDS011;3464;42.728;23.296;2023-04-06T03:37:28;25.60;;;16.50;;
6850;SDS011;3464;42.728;23.296;2023-04-06T03:39:57;27.03;;;17.07;;
6850;SDS011;3464;42.728;23.296;2023-04-06T03:42:25;26.73;;;17.67;;
6850;SDS011;3464;42.728;23.296;2023-04-06T03:44:52;27.37;;;17.90;;
6850;SDS011;3464;42.728;23.296;2023-04-06T03:47:19;27.33;;;18.30;;
6850;SDS011;3464;42.728;23.296;2023-04-06T03:49:46;27.90;;;16.40;;
6850;SDS011;3464;42.728;23.296;2023-04-06T03:52:12;29.33;;;17.57;;
6850;SDS011;3464;42.728;23.296;2023-04-06T03:54:39;26.43;;;16.00;;
6850;SDS011;3464;42.728;23.296;2023-04-06T03:57:05;26.63;;;15.90;;
6850;SDS011;3464;42.728;23.296;2023-04-06T03:59:32;26.87;;;16.70;;
6850;SDS011;3464;42.728;23.296;2023-04-06T04:01:59;25.87;;;16.17;;
6850;SDS011;3464;42.728;23.296;2023-04-06T04:04:26;25.47;;;16.13;;
6850;SDS011;3464;42.728;23.296;2023-04-06T04:06:54;24.90;;;15.73;;
6850;SDS011;3464;42.728;23.296;2023-04-06T04:09:20;24.00;;;15.47;;
6850;SDS011;3464;42.728;23.296;2023-04-06T04:11:47;27.67;;;17.47;;
6850;SDS011;3464;42.728;23.296;2023-04-06T04:14:14;26.50;;;16.90;;
6850;SDS011;3464;42.728;23.296;2023-04-06T04:16:41;27.30;;;17.67;;
6850;SDS011;3464;42.728;23.296;2023-04-06T04:19:07;26.23;;;16.60;;
6850;SDS011;3464;42.728;23.296;2023-04-06T04:21:41;27.13;;;17.03;;
6850;SDS011;3464;42.728;23.296;2023-04-06T04:24:01;27.57;;;16.57;;
6850;SDS011;3464;42.728;23.296;2023-04-06T04:26:28;26.70;;;16.23;;
6850;SDS011;3464;42.728;23.296;2023-04-06T04:28:54;26.20;;;16.70;;
6850;SDS011;3464;42.728;23.296;2023-04-06T04:31:21;26.43;;;16.83;;
6850;SDS011;3464;42.728;23.296;2023-04-06T04:33:48;29.77;;;18.03;;
6850;SDS011;3464;42.728;23.296;2023-04-06T04:36:15;27.97;;;18.50;;
6850;SDS011;3464;42.728;23.296;2023-04-06T04:38:42;27.87;;;16.70;;
6850;SDS011;3464;42.728;23.296;2023-04-06T04:41:08;27.03;;;16.10;;
6850;SDS011;3464;42.728;23.296;2023-04-06T04:43:35;30.10;;;16.63;;
6850;SDS011;3464;42.728;23.296;2023-04-06T04:46:10;25.90;;;15.67;;
6850;SDS011;3464;42.728;23.296;2023-04-06T04:48:59;26.83;;;16.00;;
6850;SDS011;3464;42.728;23.296;2023-04-06T04:51:49;29.30;;;17.07;;
6850;SDS011;3464;42.728;23.296;2023-04-06T04:54:38;29.20;;;18.23;;
6850;SDS011;3464;42.728;23.296;2023-04-06T04:57:27;28.17;;;17.93;;
6850;SDS011;3464;42.728;23.296;2023-04-06T05:00:21;27.00;;;17.00;;
6850;SDS011;3464;42.728;23.296;2023-04-06T05:03:14;28.10;;;16.53;;
6850;SDS011;3464;42.728;23.296;2023-04-06T05:06:02;25.27;;;15.20;;
6850;SDS011;3464;42.728;23.296;2023-04-06T05:08:45;29.47;;;16.30;;
6850;SDS011;3464;42.728;23.296;2023-04-06T05:11:12;22.77;;;13.30;;
6850;SDS011;3464;42.728;23.296;2023-04-06T05:13:39;23.60;;;13.40;;
6850;SDS011;3464;42.728;23.296;2023-04-06T05:16:05;26.40;;;13.90;;
6850;SDS011;3464;42.728;23.296;2023-04-06T05:18:32;23.70;;;14.90;;
6850;SDS011;3464;42.728;23.296;2023-04-06T05:20:59;27.73;;;15.07;;
6850;SDS011;3464;42.728;23.296;2023-04-06T05:23:26;26.67;;;14.73;;
6850;SDS011;3464;42.728;23.296;2023-04-06T05:25:54;24.70;;;14.20;;
6850;SDS011;3464;42.728;23.296;2023-04-06T05:28:21;25.43;;;14.00;;
6850;SDS011;3464;42.728;23.296;2023-04-06T05:30:48;27.17;;;15.17;;
6850;SDS011;3464;42.728;23.296;2023-04-06T05:33:14;25.30;;;14.40;;
6850;SDS011;3464;42.728;23.296;2023-04-06T05:35:41;26.30;;;14.93;;
6850;SDS011;3464;42.728;23.296;2023-04-06T05:38:09;26.20;;;16.07;;
6850;SDS011;3464;42.728;23.296;2023-04-06T05:40:36;28.73;;;16.20;;
6850;SDS011;3464;42.728;23.296;2023-04-06T05:43:03;27.37;;;16.70;;
6850;SDS011;3464;42.728;23.296;2023-04-06T05:45:29;26.83;;;15.00;;
6850;SDS011;3464;42.728;23.296;2023-04-06T05:47:56;28.47;;;16.93;;
6850;SDS011;3464;42.728;23.296;2023-04-06T05:50:23;28.33;;;16.73;;
6850;SDS011;3464;42.728;23.296;2023-04-06T05:52:50;26.57;;;16.10;;
6850;SDS011;3464;42.728;23.296;2023-04-06T05:55:18;26.10;;;15.73;;
6850;SDS011;3464;42.728;23.296;2023-04-06T05:57:45;28.53;;;16.63;;
6850;SDS011;3464;42.728;23.296;2023-04-06T06:00:13;27.73;;;15.13;;
6850;SDS011;3464;42.728;23.296;2023-04-06T06:02:40;25.17;;;15.43;;
6850;SDS011;3464;42.728;23.296;2023-04-06T06:05:07;32.97;;;17.60;;
6850;SDS011;3464;42.728;23.296;2023-04-06T06:07:34;28.63;;;17.33;;
6850;SDS011;3464;42.728;23.296;2023-04-06T06:10:00;28.43;;;16.87;;
6850;SDS011;3464;42.728;23.296;2023-04-06T06:12:27;25.47;;;15.87;;
6850;SDS011;3464;42.728;23.296;2023-04-06T06:14:54;25.33;;;14.43;;
6850;SDS011;3464;42.728;23.296;2023-04-06T06:17:20;29.30;;;15.10;;
6850;SDS011;3464;42.728;23.296;2023-04-06T06:20:02;26.47;;;14.80;;
6850;SDS011;3464;42.728;23.296;2023-04-06T06:22:29;25.10;;;14.00;;
6850;SDS011;3464;42.728;23.296;2023-04-06T06:24:56;26.97;;;15.33;;
6850;SDS011;3464;42.728;23.296;2023-04-06T06:27:23;25.03;;;14.23;;
6850;SDS011;3464;42.728;23.296;2023-04-06T06:29:50;27.30;;;14.80;;
6850;SDS011;3464;42.728;23.296;2023-04-06T06:32:17;24.10;;;14.50;;
6850;SDS011;3464;42.728;23.296;2023-04-06T06:34:52;28.10;;;15.20;;
6850;SDS011;3464;42.728;23.296;2023-04-06T06:37:21;32.43;;;16.70;;
6850;SDS011;3464;42.728;23.296;2023-04-06T06:40:00;26.83;;;14.67;;
6850;SDS011;3464;42.728;23.296;2023-04-06T06:42:34;27.67;;;15.30;;
6850;SDS011;3464;42.728;23.296;2023-04-06T06:45:01;26.60;;;14.60;;
6850;SDS011;3464;42.728;23.296;2023-04-06T06:47:30;21.83;;;12.30;;
6850;SDS011;3464;42.728;23.296;2023-04-06T06:49:57;26.17;;;14.13;;
6850;SDS011;3464;42.728;23.296;2023-04-06T06:52:24;21.87;;;12.53;;
6850;SDS011;3464;42.728;23.296;2023-04-06T06:54:51;26.47;;;12.80;;
6850;SDS011;3464;42.728;23.296;2023-04-06T06:57:17;24.73;;;13.33;;
6850;SDS011;3464;42.728;23.296;2023-04-06T06:59:44;24.87;;;13.70;;
6850;SDS011;3464;42.728;23.296;2023-04-06T07:02:11;25.60;;;13.83;;
6850;SDS011;3464;42.728;23.296;2023-04-06T07:04:37;22.77;;;13.00;;
6850;SDS011;3464;42.728;23.296;2023-04-06T07:07:04;25.00;;;13.90;;
6850;SDS011;3464;42.728;23.296;2023-04-06T07:09:36;24.07;;;13.27;;
6850;SDS011;3464;42.728;23.296;2023-04-06T07:12:05;31.33;;;16.10;;
6850;SDS011;3464;42.728;23.296;2023-04-06T07:14:45;27.93;;;14.70;;
6850;SDS011;3464;42.728;23.296;2023-04-06T07:17:12;27.57;;;13.30;;
6850;SDS011;3464;42.728;23.296;2023-04-06T07:19:42;23.80;;;12.73;;
6850;SDS011;3464;42.728;23.296;2023-04-06T07:22:13;26.43;;;12.87;;
6850;SDS011;3464;42.728;23.296;2023-04-06T07:24:42;24.40;;;13.20;;
6850;SDS011;3464;42.728;23.296;2023-04-06T07:27:10;22.13;;;12.30;;
6850;SDS011;3464;42.728;23.296;2023-04-06T07:29:40;21.57;;;12.23;;
6850;SDS011;3464;42.728;23.296;2023-04-06T07:32:08;25.77;;;14.00;;
6850;SDS011;3464;42.728;23.296;2023-04-06T07:34:38;23.43;;;12.50;;
6850;SDS011;3464;42.728;23.296;2023-04-06T07:37:14;26.20;;;13.37;;
6850;SDS011;3464;42.728;23.296;2023-04-06T07:39:42;24.47;;;13.87;;
6850;SDS011;3464;42.728;23.296;2023-04-06T07:42:10;23.57;;;12.43;;
6850;SDS011;3464;42.728;23.296;2023-04-06T07:44:38;23.93;;;12.97;;
6850;SDS011;3464;42.728;23.296;2023-04-06T07:47:06;23.03;;;12.70;;
6850;SDS011;3464;42.728;23.296;2023-04-06T07:49:37;28.23;;;13.07;;
6850;SDS011;3464;42.728;23.296;2023-04-06T07:52:04;27.33;;;13.90;;
6850;SDS011;3464;42.728;23.296;2023-04-06T07:54:31;25.27;;;14.20;;
6850;SDS011;3464;42.728;23.296;2023-04-06T07:57:00;20.87;;;10.40;;
6850;SDS011;3464;42.728;23.296;2023-04-06T07:59:27;19.07;;;10.23;;
6850;SDS011;3464;42.728;23.296;2023-04-06T08:01:54;24.03;;;10.77;;
6850;SDS011;3464;42.728;23.296;2023-04-06T08:04:21;21.03;;;10.13;;
6850;SDS011;3464;42.728;23.296;2023-04-06T08:06:48;27.03;;;11.63;;
6850;SDS011;3464;42.728;23.296;2023-04-06T08:09:15;20.47;;;10.37;;
6850;SDS011;3464;42.728;23.296;2023-04-06T08:11:42;20.67;;;10.57;;
6850;SDS011;3464;42.728;23.296;2023-04-06T08:14:09;23.00;;;10.57;;
6850;SDS011;3464;42.728;23.296;2023-04-06T08:16:38;27.50;;;11.10;;
6850;SDS011;3464;42.728;23.296;2023-04-06T08:19:06;21.53;;;10.43;;
6850;SDS011;3464;42.728;23.296;2023-04-06T08:21:33;20.60;;;10.17;;
6850;SDS011;3464;42.728;23.296;2023-04-06T08:24:01;21.73;;;10.90;;
6850;SDS011;3464;42.728;23.296;2023-04-06T08:26:28;21.60;;;9.73;;
6850;SDS011;3464;42.728;23.296;2023-04-06T08:28:55;21.33;;;10.20;;
6850;SDS011;3464;42.728;23.296;2023-04-06T08:31:24;19.27;;;9.80;;
6850;SDS011;3464;42.728;23.296;2023-04-06T08:33:58;22.93;;;11.00;;
6850;SDS011;3464;42.728;23.296;2023-04-06T08:36:28;19.57;;;10.50;;
6850;SDS011;3464;42.728;23.296;2023-04-06T08:38:55;27.83;;;10.90;;
6850;SDS011;3464;42.728;23.296;2023-04-06T08:41:27;20.63;;;10.27;;
6850;SDS011;3464;42.728;23.296;2023-04-06T08:43:58;19.93;;;10.40;;
6850;SDS011;3464;42.728;23.296;2023-04-06T08:46:37;22.77;;;11.03;;
6850;SDS011;3464;42.728;23.296;2023-04-06T08:49:13;28.33;;;10.70;;
6850;SDS011;3464;42.728;23.296;2023-04-06T08:51:44;20.20;;;9.30;;
6850;SDS011;3464;42.728;23.296;2023-04-06T08:54:21;20.87;;;9.60;;
6850;SDS011;3464;42.728;23.296;2023-04-06T08:57:01;20.43;;;11.13;;
6850;SDS011;3464;42.728;23.296;2023-04-06T08:59:32;19.37;;;9.60;;
6850;SDS011;3464;42.728;23.296;2023-04-06T09:02:16;26.07;;;11.20;;
6850;SDS011;3464;42.728;23.296;2023-04-06T09:04:52;21.43;;;10.47;;
6850;SDS011;3464;42.728;23.296;2023-04-06T09:07:30;20.43;;;10.20;;
6850;SDS011;3464;42.728;23.296;2023-04-06T09:10:03;21.57;;;10.70;;
6850;SDS011;3464;42.728;23.296;2023-04-06T09:12:33;21.00;;;11.10;;
6850;SDS011;3464;42.728;23.296;2023-04-06T09:15:00;20.30;;;11.87;;
6850;SDS011;3464;42.728;23.296;2023-04-06T09:17:32;20.37;;;9.70;;
6850;SDS011;3464;42.728;23.296;2023-04-06T09:20:09;22.13;;;10.43;;
6850;SDS011;3464;42.728;23.296;2023-04-06T09:22:42;19.90;;;10.00;;
6850;SDS011;3464;42.728;23.296;2023-04-06T09:25:18;18.87;;;10.10;;
6850;SDS011;3464;42.728;23.296;2023-04-06T09:27:47;18.37;;;9.50;;
6850;SDS011;3464;42.728;23.296;2023-04-06T09:30:21;18.73;;;9.83;;
6850;SDS011;3464;42.728;23.296;2023-04-06T09:32:51;18.20;;;9.00;;
6850;SDS011;3464;42.728;23.296;2023-04-06T09:35:26;18.53;;;9.60;;
6850;SDS011;3464;42.728;23.296;2023-04-06T09:37:57;18.90;;;9.50;;
6850;SDS011;3464;42.728;23.296;2023-04-06T09:40:46;22.60;;;9.80;;
6850;SDS011;3464;42.728;23.296;2023-04-06T09:43:11;19.93;;;10.50;;
6850;SDS011;3464;42.728;23.296;2023-04-06T09:48:58;22.90;;;9.43;;
6850;SDS011;3464;42.728;23.296;2023-04-06T09:51:25;18.37;;;9.47;;
6850;SDS011;3464;42.728;23.296;2023-04-06T09:53:53;16.80;;;8.70;;
6850;SDS011;3464;42.728;23.296;2023-04-06T09:56:20;19.63;;;9.77;;
6850;SDS011;3464;42.728;23.296;2023-04-06T09:58:48;19.33;;;8.77;;
6850;SDS011;3464;42.728;23.296;2023-04-06T10:01:17;19.00;;;8.40;;
6850;SDS011;3464;42.728;23.296;2023-04-06T10:03:49;23.77;;;9.47;;
6850;SDS011;3464;42.728;23.296;2023-04-06T10:06:13;17.90;;;9.53;;
6850;SDS011;3464;42.728;23.296;2023-04-06T10:08:40;17.43;;;8.50;;
6850;SDS011;3464;42.728;23.296;2023-04-06T10:11:06;17.00;;;8.73;;
6850;SDS011;3464;42.728;23.296;2023-04-06T10:13:33;18.37;;;8.57;;
6850;SDS011;3464;42.728;23.296;2023-04-06T10:15:59;21.47;;;9.90;;
6850;SDS011;3464;42.728;23.296;2023-04-06T10:18:27;19.87;;;9.50;;
6850;SDS011;3464;42.728;23.296;2023-04-06T10:20:57;17.27;;;8.63;;
6850;SDS011;3464;42.728;23.296;2023-04-06T10:23:36;18.37;;;8.87;;
6850;SDS011;3464;42.728;23.296;2023-04-06T10:26:01;18.33;;;8.80;;
6850;SDS011;3464;42.728;23.296;2023-04-06T10:28:32;16.20;;;8.43;;
6850;SDS011;3464;42.728;23.296;2023-04-06T10:30:59;16.33;;;8.27;;
6850;SDS011;3464;42.728;23.296;2023-04-06T10:33:26;21.60;;;9.47;;
6850;SDS011;3464;42.728;23.296;2023-04-06T10:35:52;18.63;;;9.13;;
6850;SDS011;3464;42.728;23.296;2023-04-06T10:38:19;19.83;;;9.30;;
6850;SDS011;3464;42.728;23.296;2023-04-06T10:40:47;21.73;;;9.40;;
6850;SDS011;3464;42.728;23.296;2023-04-06T10:43:18;20.50;;;10.50;;
6850;SDS011;3464;42.728;23.296;2023-04-06T10:45:44;17.90;;;8.80;;
6850;SDS011;3464;42.728;23.296;2023-04-06T10:48:12;18.40;;;8.83;;
6850;SDS011;3464;42.728;23.296;2023-04-06T10:50:41;22.80;;;9.03;;
6850;SDS011;3464;42.728;23.296;2023-04-06T10:53:07;16.17;;;8.60;;
6850;SDS011;3464;42.728;23.296;2023-04-06T10:55:38;17.50;;;9.37;;
6850;SDS011;3464;42.728;23.296;2023-04-06T10:58:05;18.77;;;8.97;;
6850;SDS011;3464;42.728;23.296;2023-04-06T11:00:29;17.63;;;9.50;;
6850;SDS011;3464;42.728;23.296;2023-04-06T11:02:59;18.77;;;9.13;;
6850;SDS011;3464;42.728;23.296;2023-04-06T11:05:25;18.00;;;9.00;;
6850;SDS011;3464;42.728;23.296;2023-04-06T11:07:52;23.63;;;8.63;;
6850;SDS011;3464;42.728;23.296;2023-04-06T11:10:21;17.97;;;8.67;;
6850;SDS011;3464;42.728;23.296;2023-04-06T11:12:53;18.27;;;8.50;;
6850;SDS011;3464;42.728;23.296;2023-04-06T11:15:20;19.50;;;8.83;;
6850;SDS011;3464;42.728;23.296;2023-04-06T11:17:48;18.90;;;8.30;;
6850;SDS011;3464;42.728;23.296;2023-04-06T11:20:15;19.97;;;9.87;;
6850;SDS011;3464;42.728;23.296;2023-04-06T11:25:14;19.47;;;8.97;;
6850;SDS011;3464;42.728;23.296;2023-04-06T11:27:45;18.90;;;9.60;;
6850;SDS011;3464;42.728;23.296;2023-04-06T11:30:15;17.70;;;9.17;;
6850;SDS011;3464;42.728;23.296;2023-04-06T11:32:42;15.13;;;7.93;;
6850;SDS011;3464;42.728;23.296;2023-04-06T11:35:19;17.50;;;8.93;;
6850;SDS011;3464;42.728;23.296;2023-04-06T11:37:49;17.77;;;9.07;;
6850;SDS011;3464;42.728;23.296;2023-04-06T11:40:21;16.50;;;8.43;;
6850;SDS011;3464;42.728;23.296;2023-04-06T11:42:53;20.43;;;9.43;;
6850;SDS011;3464;42.728;23.296;2023-04-06T11:45:21;16.87;;;8.70;;
6850;SDS011;3464;42.728;23.296;2023-04-06T11:50:22;18.87;;;9.53;;
6850;SDS011;3464;42.728;23.296;2023-04-06T11:52:58;15.23;;;7.50;;
6850;SDS011;3464;42.728;23.296;2023-04-06T11:55:26;17.17;;;8.80;;
6850;SDS011;3464;42.728;23.296;2023-04-06T11:57:55;17.30;;;7.90;;
6850;SDS011;3464;42.728;23.296;2023-04-06T12:00:22;24.33;;;9.13;;
6850;SDS011;3464;42.728;23.296;2023-04-06T12:02:52;19.83;;;8.30;;
6850;SDS011;3464;42.728;23.296;2023-04-06T12:08:25;16.37;;;8.03;;
6850;SDS011;3464;42.728;23.296;2023-04-06T12:10:51;16.10;;;8.23;;
6850;SDS011;3464;42.728;23.296;2023-04-06T12:13:19;16.77;;;7.13;;
6850;SDS011;3464;42.728;23.296;2023-04-06T12:15:46;17.57;;;7.73;;
6850;SDS011;3464;42.728;23.296;2023-04-06T12:18:13;18.47;;;7.43;;
6850;SDS011;3464;42.728;23.296;2023-04-06T12:20:39;16.27;;;7.60;;
6850;SDS011;3464;42.728;23.296;2023-04-06T12:23:06;15.87;;;7.63;;
6850;SDS011;3464;42.728;23.296;2023-04-06T12:25:42;15.30;;;7.27;;
6850;SDS011;3464;42.728;23.296;2023-04-06T12:28:10;15.50;;;7.33;;
6850;SDS011;3464;42.728;23.296;2023-04-06T12:30:46;17.23;;;8.00;;
6850;SDS011;3464;42.728;23.296;2023-04-06T12:33:14;17.07;;;8.10;;
6850;SDS011;3464;42.728;23.296;2023-04-06T12:35:41;15.97;;;7.03;;
6850;SDS011;3464;42.728;23.296;2023-04-06T12:38:08;16.63;;;7.97;;
6850;SDS011;3464;42.728;23.296;2023-04-06T12:40:36;18.60;;;7.80;;
6850;SDS011;3464;42.728;23.296;2023-04-06T12:43:07;18.07;;;7.67;;
6850;SDS011;3464;42.728;23.296;2023-04-06T12:45:40;19.77;;;7.97;;
6850;SDS011;3464;42.728;23.296;2023-04-06T12:48:07;17.90;;;7.90;;
6850;SDS011;3464;42.728;23.296;2023-04-06T12:50:34;22.43;;;8.90;;
6850;SDS011;3464;42.728;23.296;2023-04-06T12:53:02;18.53;;;8.33;;
6850;SDS011;3464;42.728;23.296;2023-04-06T12:55:31;18.47;;;8.30;;
6850;SDS011;3464;42.728;23.296;2023-04-06T12:58:01;17.57;;;7.90;;
6850;SDS011;3464;42.728;23.296;2023-04-06T13:00:29;15.00;;;8.50;;
6850;SDS011;3464;42.728;23.296;2023-04-06T13:02:58;19.67;;;8.73;;
6850;SDS011;3464;42.728;23.296;2023-04-06T13:05:26;16.30;;;8.20;;
6850;SDS011;3464;42.728;23.296;2023-04-06T13:07:54;21.00;;;9.07;;
6850;SDS011;3464;42.728;23.296;2023-04-06T13:10:21;18.17;;;8.10;;
6850;SDS011;3464;42.728;23.296;2023-04-06T13:12:48;15.97;;;7.83;;
6850;SDS011;3464;42.728;23.296;2023-04-06T13:15:15;17.40;;;8.30;;
6850;SDS011;3464;42.728;23.296;2023-04-06T13:17:43;18.20;;;8.80;;
6850;SDS011;3464;42.728;23.296;2023-04-06T13:20:10;21.10;;;9.07;;
6850;SDS011;3464;42.728;23.296;2023-04-06T13:22:38;17.10;;;7.90;;
6850;SDS011;3464;42.728;23.296;2023-04-06T13:25:05;17.30;;;7.90;;
6850;SDS011;3464;42.728;23.296;2023-04-06T13:27:32;19.87;;;8.87;;
6850;SDS011;3464;42.728;23.296;2023-04-06T13:29:59;17.40;;;8.00;;
6850;SDS011;3464;42.728;23.296;2023-04-06T13:32:26;18.50;;;8.67;;
6850;SDS011;3464;42.728;23.296;2023-04-06T13:34:54;18.80;;;9.17;;
6850;SDS011;3464;42.728;23.296;2023-04-06T13:37:20;20.33;;;8.60;;
6850;SDS011;3464;42.728;23.296;2023-04-06T13:39:47;16.40;;;6.60;;
6850;SDS011;3464;42.728;23.296;2023-04-06T13:42:14;19.33;;;7.90;;
6850;SDS011;3464;42.728;23.296;2023-04-06T13:44:40;14.63;;;7.70;;
6850;SDS011;3464;42.728;23.296;2023-04-06T13:47:07;19.33;;;7.30;;
6850;SDS011;3464;42.728;23.296;2023-04-06T13:49:34;16.30;;;7.07;;
6850;SDS011;3464;42.728;23.296;2023-04-06T13:52:01;16.00;;;7.43;;
6850;SDS011;3464;42.728;23.296;2023-04-06T13:54:27;19.43;;;7.80;;
6850;SDS011;3464;42.728;23.296;2023-04-06T13:56:54;17.80;;;8.17;;
6850;SDS011;3464;42.728;23.296;2023-04-06T13:59:22;16.20;;;8.20;;
6850;SDS011;3464;42.728;23.296;2023-04-06T14:01:56;16.17;;;8.00;;
6850;SDS011;3464;42.728;23.296;2023-04-06T14:07:55;16.77;;;7.67;;
6850;SDS011;3464;42.728;23.296;2023-04-06T14:10:23;16.63;;;7.47;;
6850;SDS011;3464;42.728;23.296;2023-04-06T14:12:52;18.73;;;8.40;;
6850;SDS011;3464;42.728;23.296;2023-04-06T14:15:18;16.03;;;8.27;;
6850;SDS011;3464;42.728;23.296;2023-04-06T14:17:45;21.60;;;8.47;;
6850;SDS011;3464;42.728;23.296;2023-04-06T14:20:12;17.53;;;8.93;;
6850;SDS011;3464;42.728;23.296;2023-04-06T14:22:38;19.50;;;8.73;;
6850;SDS011;3464;42.728;23.296;2023-04-06T14:25:05;19.37;;;9.43;;
6850;SDS011;3464;42.728;23.296;2023-04-06T14:27:32;17.40;;;9.30;;
6850;SDS011;3464;42.728;23.296;2023-04-06T14:29:58;18.80;;;8.63;;
6850;SDS011;3464;42.728;23.296;2023-04-06T14:32:26;21.30;;;8.73;;
6850;SDS011;3464;42.728;23.296;2023-04-06T14:34:53;19.50;;;9.07;;
6850;SDS011;3464;42.728;23.296;2023-04-06T14:37:20;17.50;;;9.30;;
6850;SDS011;3464;42.728;23.296;2023-04-06T14:39:46;22.77;;;9.73;;
6850;SDS011;3464;42.728;23.296;2023-04-06T14:42:13;22.93;;;10.13;;
6850;SDS011;3464;42.728;23.296;2023-04-06T14:44:40;20.57;;;10.83;;
6850;SDS011;3464;42.728;23.296;2023-04-06T14:47:07;21.93;;;10.27;;
6850;SDS011;3464;42.728;23.296;2023-04-06T14:49:34;18.10;;;9.80;;
6850;SDS011;3464;42.728;23.296;2023-04-06T14:52:01;19.47;;;9.70;;
6850;SDS011;3464;42.728;23.296;2023-04-06T14:54:27;18.90;;;10.40;;
6850;SDS011;3464;42.728;23.296;2023-04-06T14:56:57;18.10;;;9.60;;
6850;SDS011;3464;42.728;23.296;2023-04-06T14:59:24;19.73;;;10.20;;
6850;SDS011;3464;42.728;23.296;2023-04-06T15:01:52;20.93;;;11.17;;